Time;durP1;ratioP1;P1;durP2;ratioP2;P2;SDS_P1;SDS_P2;PMS_P1;PMS_P2;Temp;Humidity;BMP_temperature;BMP_pressure;BME280_temperature;BME280_humidity;BME280_pressure;Samples;Min_cycle;Max_cycle;Signal;HPM_P1;HPM_P2
2022/02/09 00:00:20;;;;;;;9.10;4.38;;;;;;;0.44;58.04;95519.31;5094349;28;20031;-67
2022/02/09 00:05:42;;;;;;;8.35;3.95;;;;;;;0.48;58.36;95514.13;5111108;28;20039;-67
2022/02/09 00:08:01;;;;;;;8.13;3.88;;;;;;;0.44;58.83;95508.25;5112342;28;20469;-67
2022/02/09 00:10:29;;;;;;;5.90;4.00;;;;;;;0.40;58.52;95504.97;5112369;28;20031;-67
2022/02/09 00:18:22;;;;;;;7.45;4.03;;;;;;;0.39;58.69;95508.41;5091384;28;20023;-67
2022/02/09 00:23:52;;;;;;;7.38;3.60;;;;;;;0.36;59.08;95515.31;5125895;27;20051;-67
2022/02/09 00:37:17;;;;;;;5.45;3.80;;;;;;;0.28;59.77;95537.72;5112527;27;20042;-68
2022/02/09 00:42:22;;;;;;;9.40;4.30;;;;;;;0.36;60.22;95541.75;5123669;27;20050;-66
2022/02/09 01:55:28;;;;;;;9.13;4.00;;;;;;;0.39;60.76;95526.31;5121388;27;20050;-66
2022/02/09 01:57:53;;;;;;;9.50;3.65;;;;;;;0.40;60.44;95527.97;5112913;28;20455;-66
2022/02/09 02:00:19;;;;;;;8.82;3.78;;;;;;;0.40;60.16;95522.84;5112421;28;20035;-66
2022/02/09 02:02:44;;;;;;;9.00;4.07;;;;;;;0.39;60.26;95517.78;5111215;27;20023;-67
2022/02/09 02:05:10;;;;;;;11.25;4.75;;;;;;;0.37;59.66;95522.97;5095411;28;20498;-66
2022/02/09 02:07:55;;;;;;;9.10;4.40;;;;;;;0.39;59.82;95526.31;5118597;27;20057;-67
2022/02/09 02:11:15;;;;;;;7.32;3.58;;;;;;;0.46;60.29;95531.22;5118587;27;20462;-67
2022/02/09 02:18:25;;;;;;;8.13;3.88;;;;;;;0.57;60.04;95549.63;5111294;28;20038;-67
2022/02/09 02:26:20;;;;;;;6.32;3.70;;;;;;;0.71;59.74;95542.31;5132909;27;20036;-65
2022/02/09 02:34:53;;;;;;;8.73;3.72;;;;;;;0.75;59.40;95569.47;5130840;27;20039;-65
2022/02/09 02:37:11;;;;;;;8.63;4.45;;;;;;;0.59;59.85;95548.69;5113812;27;20547;-67
2022/02/09 03:17:06;;;;;;;9.52;4.07;;;;;;;1.13;60.08;95600.63;5132348;27;20035;-66
2022/02/09 03:27:47;;;;;;;6.82;3.95;;;;;;;1.23;59.52;95598.63;5112236;27;20199;-66
2022/02/09 03:54:51;;;;;;;9.93;5.82;;;;;;;1.38;60.00;95567.38;5133136;27;20054;-66
2022/02/09 03:59:48;;;;;;;8.02;5.00;;;;;;;1.33;59.96;95564.94;5112822;28;20126;-66
2022/02/09 04:02:13;;;;;;;7.30;4.57;;;;;;;1.37;60.24;95567.44;5112393;28;20115;-66
2022/02/09 04:04:39;;;;;;;8.20;4.88;;;;;;;1.38;60.66;95571.66;5112287;28;20024;-66
2022/02/09 04:07:05;;;;;;;6.60;4.50;;;;;;;1.43;61.65;95568.03;5112241;27;20028;-66
2022/02/09 04:09:33;;;;;;;11.25;6.57;;;;;;;1.41;60.18;95580.06;5110412;28;20024;-66
2022/02/09 04:12:14;;;;;;;11.50;6.95;;;;;;;1.44;60.59;95566.31;5112646;28;20424;-66
2022/02/09 04:14:55;;;;;;;17.07;11.27;;;;;;;1.41;61.34;95574.09;5093760;28;20030;-66
2022/02/09 04:20:14;;;;;;;7.03;4.15;;;;;;;1.44;61.17;95569.69;5112062;28;19931;-66
2022/02/09 04:36:09;;;;;;;10.60;5.90;;;;;;;1.55;61.68;95565.03;5104399;28;20642;-66
2022/02/09 04:39:04;;;;;;;9.75;4.40;;;;;;;1.63;61.53;95564.78;5101251;28;20429;-65
2022/02/09 04:47:26;;;;;;;6.70;4.45;;;;;;;1.64;62.12;95576.69;5108715;28;20023;-66
2022/02/09 04:54:59;;;;;;;9.77;5.45;;;;;;;1.61;62.63;95563.16;5114267;27;20054;-66
2022/02/09 05:00:14;;;;;;;8.40;5.25;;;;;;;1.72;62.81;95558.47;5088908;28;20081;-65
2022/02/09 05:24:11;;;;;;;6.38;4.13;;;;;;;1.90;63.08;95583.44;5096736;28;20059;-66
2022/02/09 05:26:40;;;;;;;10.85;5.72;;;;;;;1.95;63.07;95583.25;5112756;27;20491;-65
2022/02/09 05:29:05;;;;;;;8.77;5.65;;;;;;;1.97;63.04;95581.47;5120105;27;20034;-66
2022/02/09 05:31:31;;;;;;;12.40;9.20;;;;;;;1.95;63.17;95576.41;5098990;27;20069;-65
2022/02/09 05:33:56;;;;;;;22.95;17.52;;;;;;;1.94;62.85;95573.91;5078592;28;20035;-65
2022/02/09 05:36:22;;;;;;;26.42;12.00;;;;;;;1.97;63.00;95576.34;5107641;27;20030;-66
2022/02/09 05:38:47;;;;;;;7.90;5.03;;;;;;;1.85;63.66;95569.13;5115197;28;20035;-65
2022/02/09 05:41:13;;;;;;;8.98;4.85;;;;;;;1.95;63.73;95580.69;5080532;27;20032;-66
2022/02/09 05:43:38;;;;;;;6.75;4.38;;;;;;;1.91;63.68;95579.16;5104246;27;20032;-65
2022/02/09 05:56:38;;;;;;;9.43;5.28;;;;;;;2.10;63.92;95585.25;5118722;27;20047;-65
2022/02/09 06:01:29;;;;;;;10.95;4.57;;;;;;;2.13;63.93;95608.22;5094076;27;20038;-66
2022/02/09 06:03:55;;;;;;;9.63;4.50;;;;;;;2.18;63.43;95603.75;5078252;28;20057;-66
2022/02/09 06:06:20;;;;;;;6.18;4.35;;;;;;;2.18;63.83;95608.88;5099202;28;20032;-66
2022/02/09 06:08:46;;;;;;;6.05;3.92;;;;;;;2.23;63.70;95607.00;5116225;27;20031;-65
2022/02/09 06:12:09;;;;;;;7.25;4.10;;;;;;;2.22;63.19;95618.13;5115144;27;20027;-66
2022/02/09 06:21:50;;;;;;;6.60;3.97;;;;;;;2.31;63.47;95639.19;5096690;27;20082;-65
2022/02/09 06:24:16;;;;;;;8.05;4.18;;;;;;;2.27;63.89;95640.19;5107955;27;20501;-66
2022/02/09 06:26:41;;;;;;;8.98;5.22;;;;;;;2.32;63.63;95648.56;5116120;27;20065;-65
2022/02/09 06:29:08;;;;;;;5.93;4.22;;;;;;;2.21;64.01;95634.41;5077655;28;20020;-65
2022/02/09 06:31:35;;;;;;;6.05;4.30;;;;;;;2.32;64.01;95651.13;5101631;28;20028;-66
2022/02/09 06:34:01;;;;;;;6.50;4.32;;;;;;;2.35;63.77;95646.72;5117860;27;20096;-66
2022/02/09 06:36:26;;;;;;;8.88;5.13;;;;;;;2.23;64.49;95650.56;5117512;27;20031;-66
2022/02/09 06:38:52;;;;;;;9.45;5.53;;;;;;;2.28;64.25;95652.94;5079456;28;20024;-65
2022/02/09 06:41:18;;;;;;;9.25;5.93;;;;;;;2.30;64.47;95645.22;5109980;27;20047;-66
2022/02/09 06:43:43;;;;;;;12.52;5.57;;;;;;;2.28;64.18;95644.44;5119162;27;20081;-66
2022/02/09 06:46:09;;;;;;;10.15;6.47;;;;;;;2.32;64.02;95649.41;5114988;27;20039;-65
2022/02/09 06:48:35;;;;;;;8.10;5.45;;;;;;;2.38;63.75;95645.75;5074133;28;20028;-66
2022/02/09 06:51:14;;;;;;;9.88;4.72;;;;;;;2.44;63.87;95654.06;5098371;27;20028;-66
2022/02/09 06:54:01;;;;;;;11.55;8.02;;;;;;;2.41;63.89;95655.91;5093441;27;20024;-66
2022/02/09 06:56:42;;;;;;;11.85;8.57;;;;;;;2.42;63.99;95663.56;5110865;28;20455;-67
2022/02/09 07:01:35;;;;;;;12.55;7.15;;;;;;;2.50;64.08;95663.25;5112570;27;20051;-66
2022/02/09 07:04:01;;;;;;;10.40;6.05;;;;;;;2.59;64.34;95665.47;5092144;28;20127;-66
2022/02/09 07:06:26;;;;;;;9.60;4.93;;;;;;;2.58;64.01;95660.41;5081917;27;20043;-65
2022/02/09 07:08:52;;;;;;;9.82;5.32;;;;;;;2.58;64.43;95658.66;5115390;27;20030;-65
2022/02/09 07:11:17;;;;;;;7.57;5.10;;;;;;;2.61;64.67;95653.41;5093979;28;20028;-65
2022/02/09 07:13:42;;;;;;;10.00;5.93;;;;;;;2.64;64.23;95648.16;5116514;27;20499;-65
2022/02/09 07:16:08;;;;;;;8.77;6.03;;;;;;;2.56;64.53;95660.44;5092679;28;20046;-65
2022/02/09 07:18:36;;;;;;;10.95;5.68;;;;;;;2.54;64.25;95643.47;5107362;27;20031;-65
2022/02/09 07:21:07;;;;;;;9.18;4.50;;;;;;;2.62;65.12;95649.13;5100532;27;20142;-68
2022/02/09 07:26:08;;;;;;;9.98;7.65;;;;;;;2.58;65.21;95657.84;5113746;27;20032;-65
2022/02/09 07:28:33;;;;;;;9.25;5.80;;;;;;;2.56;65.04;95652.75;5105367;27;20012;-66
2022/02/09 07:30:59;;;;;;;8.75;4.82;;;;;;;2.57;65.14;95664.69;5093002;28;20047;-66
2022/02/09 07:33:25;;;;;;;6.20;4.30;;;;;;;2.51;65.74;95662.38;5114039;27;20027;-66
2022/02/09 07:35:51;;;;;;;6.63;4.43;;;;;;;2.54;65.45;95672.50;5091245;28;20510;-65
2022/02/09 07:38:16;;;;;;;5.35;4.10;;;;;;;2.51;65.35;95667.50;5099595;28;20024;-65
2022/02/09 07:40:43;;;;;;;6.53;4.50;;;;;;;2.60;65.92;95679.97;5094499;28;20039;-65
2022/02/09 07:43:26;;;;;;;7.18;5.03;;;;;;;2.49;66.08;95671.84;5112198;27;20390;-65
2022/02/09 07:48:52;;;;;;;9.40;5.63;;;;;;;2.49;65.54;95674.41;5119027;27;20549;-67
2022/02/09 07:53:57;;;;;;;13.85;7.03;;;;;;;2.60;65.21;95684.28;5112104;28;19926;-65
2022/02/09 07:56:23;;;;;;;7.45;5.20;;;;;;;2.50;64.95;95670.94;5117922;27;20508;-66
2022/02/09 07:58:48;;;;;;;7.30;4.97;;;;;;;2.62;65.02;95680.75;5122443;27;20027;-65
2022/02/09 08:01:14;;;;;;;6.45;4.78;;;;;;;2.67;64.30;95681.44;5112777;28;20031;-65
2022/02/09 08:03:41;;;;;;;7.45;5.15;;;;;;;2.61;64.77;95673.09;5122134;27;20073;-65
2022/02/09 08:06:07;;;;;;;8.20;6.22;;;;;;;2.67;64.14;95672.88;5129186;27;20023;-65
2022/02/09 08:08:33;;;;;;;9.27;6.50;;;;;;;2.77;63.76;95676.75;5114273;27;20027;-65
2022/02/09 08:11:12;;;;;;;7.43;5.03;;;;;;;2.81;63.51;95673.16;5131379;27;20035;-65
2022/02/09 08:23:32;;;;;;;10.57;5.47;;;;;;;3.03;62.84;95680.03;5115627;27;20068;-65
2022/02/09 08:35:01;;;;;;;20.77;15.93;;;;;;;3.24;62.29;95663.78;5119465;27;20036;-65
2022/02/09 08:37:26;;;;;;;32.95;21.40;;;;;;;3.39;61.76;95652.03;5093748;28;20038;-65
2022/02/09 08:39:54;;;;;;;10.65;8.32;;;;;;;3.54;62.13;95637.75;5113039;27;20023;-66
2022/02/09 08:42:19;;;;;;;13.27;8.25;;;;;;;3.72;62.02;95643.81;5110793;28;20511;-67
2022/02/09 08:44:45;;;;;;;10.55;8.02;;;;;;;3.87;61.52;95632.88;5077151;28;20122;-67
2022/02/09 08:47:10;;;;;;;5.03;3.10;;;;;;;4.00;60.39;95646.03;5113958;27;20071;-67
2022/02/09 08:49:36;;;;;;;12.05;7.03;;;;;;;4.15;60.67;95652.22;5123878;27;20019;-66
2022/02/09 08:52:02;;;;;;;4.97;2.83;;;;;;;4.14;59.41;95645.44;5132395;27;20092;-65
2022/02/09 08:54:27;;;;;;;5.38;2.95;;;;;;;4.28;59.75;95653.34;5130960;27;20183;-65
2022/02/09 08:56:54;;;;;;;5.72;3.08;;;;;;;4.33;59.32;95655.75;5112785;27;20097;-65
2022/02/09 08:59:26;;;;;;;18.58;8.15;;;;;;;4.34;60.12;95660.78;5112060;27;20023;-68
2022/02/09 09:01:59;;;;;;;27.33;11.52;;;;;;;4.38;60.08;95657.19;5126571;27;20035;-67
2022/02/09 09:04:30;;;;;;;19.75;9.23;;;;;;;4.57;59.28;95669.22;5129779;27;20403;-67
2022/02/09 09:06:57;;;;;;;10.05;6.05;;;;;;;4.51;58.85;95666.91;5131751;27;20027;-67
2022/02/09 09:09:43;;;;;;;10.95;3.72;;;;;;;4.61;59.08;95676.72;5113742;27;20039;-67
2022/02/09 09:31:29;;;;;;;7.40;4.18;;;;;;;5.24;58.00;95660.91;5118593;28;20051;-66
2022/02/09 10:03:06;;;;;;;13.07;7.50;;;;;;;5.98;57.73;95646.94;5072505;28;20123;-66
2022/02/09 10:31:04;;;;;;;10.80;5.73;;;;;;;6.11;57.44;95640.25;5093012;28;20105;-66
2022/02/09 10:33:30;;;;;;;14.38;7.80;;;;;;;6.07;57.52;95641.31;5092954;28;20090;-66
2022/02/09 10:36:12;;;;;;;6.03;3.78;;;;;;;6.13;57.67;95638.44;5109601;28;20468;-66
2022/02/09 10:38:40;;;;;;;14.88;8.35;;;;;;;6.21;57.40;95648.34;5092644;28;20024;-66
2022/02/09 10:41:17;;;;;;;10.65;5.97;;;;;;;6.17;56.77;95631.34;5092579;28;20032;-66
2022/02/09 10:43:44;;;;;;;6.15;3.75;;;;;;;6.29;56.24;95645.34;5092459;28;20157;-66
2022/02/09 10:46:20;;;;;;;6.22;4.45;;;;;;;6.19;56.65;95632.13;5075899;28;20391;-66
2022/02/09 10:48:53;;;;;;;5.47;3.63;;;;;;;6.20;56.74;95626.88;5092450;28;20097;-66
2022/02/09 10:54:25;;;;;;;5.38;3.58;;;;;;;6.20;56.76;95639.75;5078895;28;20456;-66
2022/02/09 10:56:57;;;;;;;4.28;2.97;;;;;;;6.03;56.54;95634.66;5092611;28;20020;-66
2022/02/09 10:59:30;;;;;;;6.88;4.38;;;;;;;6.04;56.96;95632.00;5076220;28;20035;-67
2022/02/09 11:01:57;;;;;;;14.05;8.35;;;;;;;6.04;57.42;95623.41;5093652;28;20062;-66
2022/02/09 11:04:23;;;;;;;9.25;5.40;;;;;;;6.06;57.60;95631.09;5091988;28;20032;-67
2022/02/09 11:06:48;;;;;;;7.20;4.75;;;;;;;6.09;57.47;95620.59;5092209;28;20032;-67
2022/02/09 11:09:18;;;;;;;6.32;3.80;;;;;;;6.11;57.40;95621.38;5075008;28;20508;-67
2022/02/09 11:11:44;;;;;;;7.05;4.47;;;;;;;6.19;57.12;95634.69;5075418;28;20089;-66
2022/02/09 11:14:15;;;;;;;7.75;6.00;;;;;;;6.27;57.25;95624.81;5091817;28;20031;-66
2022/02/09 11:16:51;;;;;;;9.20;4.93;;;;;;;6.22;57.17;95627.63;5092089;28;20093;-66
2022/02/09 11:19:18;;;;;;;7.68;5.75;;;;;;;6.21;57.47;95627.69;5091537;28;20032;-66
2022/02/09 11:21:49;;;;;;;11.02;6.15;;;;;;;6.31;57.37;95621.13;5093312;28;20039;-66
2022/02/09 11:24:15;;;;;;;11.93;9.70;;;;;;;6.37;57.13;95627.72;5075592;28;20047;-67
2022/02/09 11:27:03;;;;;;;6.68;5.28;;;;;;;6.42;56.66;95633.47;5091744;28;20040;-66
2022/02/09 11:32:03;;;;;;;6.35;4.00;;;;;;;6.47;56.21;95639.22;5091744;28;20028;-66
2022/02/09 11:34:28;;;;;;;6.32;4.20;;;;;;;6.49;55.44;95627.91;5092695;28;20028;-66
2022/02/09 11:37:00;;;;;;;8.73;5.03;;;;;;;6.49;56.17;95632.22;5091633;28;20054;-67
2022/02/09 11:39:46;;;;;;;;;;;;;;;6.53;55.88;95641.47;5075944;28;20071;-67
2022/02/09 11:42:48;;;;;;;6.30;4.28;;;;;;;6.39;55.92;95634.47;5107925;28;19924;-67
2022/02/09 11:45:41;;;;;;;8.35;5.15;;;;;;;6.33;56.31;95624.47;5091534;28;20110;-67
2022/02/09 11:48:35;;;;;;;7.15;4.70;;;;;;;6.31;56.62;95640.97;5077537;28;20020;-67
2022/02/09 12:12:02;;;;;;;19.75;8.63;;;;;;;5.92;57.82;95627.44;5091067;28;20078;-68
2022/02/09 12:20:24;;;;;;;9.63;4.80;;;;;;;5.59;58.30;95638.53;5090852;28;20043;-67
2022/02/09 12:23:05;;;;;;;10.75;6.93;;;;;;;5.67;58.85;95638.16;5091347;28;20031;-68
2022/02/09 12:25:40;;;;;;;;;;;;;;;5.79;58.18;95641.88;5092226;28;20052;-67
2022/02/09 12:28:05;;;;;;;14.20;10.35;;;;;;;5.62;58.41;95639.31;5091619;28;19912;-67
2022/02/09 12:30:31;;;;;;;18.45;9.55;;;;;;;5.59;58.86;95668.66;5089971;28;20050;-67
2022/02/09 12:32:56;;;;;;;6.40;4.15;;;;;;;5.48;58.82;95648.56;5090318;28;20387;-67
2022/02/09 12:35:22;;;;;;;19.75;11.82;;;;;;;5.30;59.74;95650.31;5091436;28;20039;-67
2022/02/09 12:37:47;;;;;;;7.57;5.03;;;;;;;5.39;59.13;95651.59;5073424;28;20031;-68
2022/02/09 12:40:18;;;;;;;22.45;16.65;;;;;;;5.43;59.58;95660.00;5091326;28;20032;-67
2022/02/09 12:42:52;;;;;;;12.40;7.18;;;;;;;5.50;59.24;95656.22;5091503;28;20044;-67
2022/02/09 12:45:19;;;;;;;7.38;4.78;;;;;;;5.43;59.07;95660.81;5090139;28;20555;-67
2022/02/09 12:47:48;;;;;;;6.50;4.65;;;;;;;5.37;59.48;95654.22;5090109;28;20024;-67
2022/02/09 12:50:18;;;;;;;5.65;3.92;;;;;;;5.46;59.27;95663.28;5090000;28;20035;-67
2022/02/09 12:52:45;;;;;;;8.65;6.80;;;;;;;5.53;59.43;95661.22;5074170;28;20036;-68
2022/02/09 12:55:12;;;;;;;8.23;5.40;;;;;;;5.56;59.58;95674.78;5089974;28;20043;-67
2022/02/09 12:57:48;;;;;;;5.65;4.90;;;;;;;5.38;59.53;95663.66;5091210;28;20055;-67
2022/02/09 13:00:22;;;;;;;7.63;6.40;;;;;;;5.47;59.29;95664.13;5090007;28;20036;-67
2022/02/09 13:02:48;;;;;;;8.10;6.00;;;;;;;5.47;59.49;95667.50;5091168;28;20027;-67
2022/02/09 13:05:13;;;;;;;8.80;6.22;;;;;;;5.48;59.35;95665.78;5089892;28;20036;-67
2022/02/09 13:07:39;;;;;;;8.65;5.22;;;;;;;5.46;59.42;95665.00;5091097;28;20062;-67
2022/02/09 13:10:05;;;;;;;10.30;6.10;;;;;;;5.35;59.46;95661.22;5072844;28;20450;-67
2022/02/09 13:12:31;;;;;;;7.43;6.30;;;;;;;5.46;59.61;95663.28;5095346;28;20027;-68
2022/02/09 13:15:11;;;;;;;7.55;4.90;;;;;;;5.44;59.64;95666.84;5117740;27;20077;-67
2022/02/09 13:18:11;;;;;;;10.70;7.40;;;;;;;5.41;60.01;95662.66;5114569;28;20464;-67
2022/02/09 13:51:46;;;;;;;8.63;6.63;;;;;;;5.49;60.56;95668.28;5088936;28;20173;-67
2022/02/09 14:57:12;;;;;;;38.50;18.35;;;;;;;4.59;65.87;95734.31;5128642;27;20027;-67
2022/02/09 15:02:08;;;;;;;26.50;19.77;;;;;;;4.43;66.63;95724.72;5101141;27;20126;-68
2022/02/09 15:07:44;;;;;;;36.47;19.27;;;;;;;4.35;67.38;95720.81;5112567;28;20038;-68
2022/02/09 15:10:20;;;;;;;25.52;18.42;;;;;;;4.29;67.55;95716.78;5111450;27;20367;-68
2022/02/09 15:23:22;;;;;;;32.33;21.33;;;;;;;4.35;67.23;95713.09;5104829;27;20092;-68
2022/02/09 15:25:47;;;;;;;21.30;16.13;;;;;;;4.29;67.20;95711.63;5084895;28;20044;-68
2022/02/09 15:28:13;;;;;;;16.55;12.88;;;;;;;4.33;67.24;95715.72;5089719;27;20035;-68
2022/02/09 15:31:30;;;;;;;19.90;15.95;;;;;;;4.38;66.78;95708.66;5108773;27;20028;-68
2022/02/09 15:33:35;;;;;;;17.42;13.23;;;;;;;4.33;67.14;95714.91;5125463;27;20481;-68
2022/02/09 15:36:01;;;;;;;16.08;12.32;;;;;;;4.25;67.26;95720.38;5129673;27;20064;-68
2022/02/09 15:38:37;;;;;;;16.83;13.60;;;;;;;4.30;67.23;95722.75;5130930;27;20023;-68
2022/02/09 15:41:17;;;;;;;17.23;13.63;;;;;;;4.33;67.25;95723.44;5131640;27;20035;-68
2022/02/09 16:23:41;;;;;;;20.38;15.52;;;;;;;4.15;66.54;95750.81;5097434;27;20398;-68
2022/02/09 16:34:47;;;;;;;18.50;13.95;;;;;;;4.18;66.38;95766.13;5108734;28;20554;-68
2022/02/09 16:45:15;;;;;;;13.48;10.80;;;;;;;4.05;66.87;95788.09;5113119;27;20512;-69
2022/02/09 16:47:58;;;;;;;23.67;14.88;;;;;;;4.15;66.73;95797.09;5109706;28;20020;-69
2022/02/09 16:50:29;;;;;;;37.20;21.73;;;;;;;4.10;66.95;95793.06;5110792;27;20481;-68
2022/02/09 16:53:09;;;;;;;63.13;32.10;;;;;;;4.12;66.73;95791.22;5112803;27;20063;-68
2022/02/09 17:20:31;;;;;;;33.03;21.13;;;;;;;4.36;65.57;95807.38;5130085;27;20184;-68
2022/02/09 17:22:57;;;;;;;21.63;16.35;;;;;;;4.34;66.21;95817.72;5130353;27;20031;-68
2022/02/09 17:25:22;;;;;;;14.20;10.25;;;;;;;4.17;66.51;95822.75;5131854;27;20058;-68
2022/02/09 17:27:48;;;;;;;12.77;10.20;;;;;;;4.18;66.55;95812.41;5130595;28;20521;-68
2022/02/09 17:31:02;;;;;;;14.85;12.70;;;;;;;4.22;66.46;95810.53;5130348;28;20035;-68
2022/02/09 17:33:13;;;;;;;16.08;13.15;;;;;;;4.22;66.49;95815.69;5111003;28;20042;-68
2022/02/09 17:36:36;;;;;;;14.05;10.77;;;;;;;4.27;66.70;95821.47;5115030;28;20127;-68
2022/02/09 17:57:39;;;;;;;20.40;13.55;;;;;;;4.34;65.96;95838.31;5110045;28;20038;-69
2022/02/09 18:00:16;;;;;;;11.75;9.70;;;;;;;4.29;66.29;95839.41;5110736;28;20437;-68
2022/02/09 18:02:51;;;;;;;24.52;14.82;;;;;;;4.28;66.30;95845.47;5109540;28;20417;-68
2022/02/09 18:05:30;;;;;;;18.52;11.88;;;;;;;4.17;66.64;95840.75;5100196;28;20035;-70
2022/02/09 18:07:59;;;;;;;18.58;11.35;;;;;;;4.16;66.51;95837.34;5130378;28;20488;-68
2022/02/09 18:31:33;;;;;;;21.25;13.52;;;;;;;4.21;66.38;95852.59;5133859;27;20054;-69
2022/02/09 19:03:39;;;;;;;18.67;11.68;;;;;;;4.17;66.12;95871.63;5108785;27;20038;-66
2022/02/09 19:06:17;;;;;;;20.13;14.63;;;;;;;4.18;66.10;95876.72;5110531;28;20028;-66
2022/02/09 19:14:10;;;;;;;125.90;56.55;;;;;;;4.16;65.93;95875.09;5117138;27;20034;-67
2022/02/09 19:14:47;;;;;;;23.67;15.15;;;;;;;4.12;65.42;95874.38;5131992;27;20038;-67
2022/02/09 19:20:08;;;;;;;66.03;39.00;;;;;;;4.16;65.23;95877.66;5111854;27;20127;-68
2022/02/09 19:30:51;;;;;;;38.80;30.00;;;;;;;4.15;65.16;95888.84;5131993;27;20581;-69
2022/02/09 19:49:10;;;;;;;18.45;13.77;;;;;;;4.03;64.83;95903.84;5093687;28;20031;-67
2022/02/09 19:51:42;;;;;;;18.48;15.93;;;;;;;3.99;64.72;95907.47;5109059;27;20031;-67
2022/02/09 19:56:39;;;;;;;19.63;16.02;;;;;;;3.93;64.90;95912.03;5123522;27;20062;-67
2022/02/09 19:59:15;;;;;;;16.52;12.90;;;;;;;3.89;64.69;95901.00;5120344;27;20477;-67
2022/02/09 20:01:41;;;;;;;14.27;12.70;;;;;;;3.87;64.71;95900.22;5095065;28;20031;-67
2022/02/09 20:04:07;;;;;;;14.65;12.02;;;;;;;3.92;64.99;95906.03;5111265;28;20023;-67
2022/02/09 20:06:33;;;;;;;16.38;12.82;;;;;;;3.95;64.64;95913.59;5112127;28;20031;-67
2022/02/09 20:08:59;;;;;;;16.17;13.38;;;;;;;3.87;64.79;95905.34;5120743;27;20050;-67
2022/02/09 20:11:24;;;;;;;21.55;14.73;;;;;;;3.97;64.28;95916.97;5111936;28;20036;-67
2022/02/09 20:13:53;;;;;;;13.25;9.75;;;;;;;3.92;64.72;95913.72;5109729;28;20024;-67
2022/02/09 20:16:24;;;;;;;9.95;7.55;;;;;;;3.86;64.48;95906.25;5110696;28;20023;-66
2022/02/09 20:18:51;;;;;;;10.48;7.85;;;;;;;3.80;64.68;95909.91;5120343;27;20031;-67
2022/02/09 20:21:18;;;;;;;10.27;7.30;;;;;;;3.76;64.73;95912.66;5113317;27;20113;-67
2022/02/09 20:23:43;;;;;;;8.98;6.65;;;;;;;3.72;65.23;95911.09;5131878;27;20059;-67
2022/02/09 20:26:11;;;;;;;8.07;6.03;;;;;;;3.70;65.68;95918.03;5127215;27;20466;-69
2022/02/09 20:28:39;;;;;;;8.27;6.40;;;;;;;3.67;65.42;95929.25;5130385;27;20058;-70
2022/02/09 20:31:09;;;;;;;12.13;8.50;;;;;;;3.70;65.30;95933.44;5114024;27;20039;-69
2022/02/09 20:33:42;;;;;;;11.43;8.70;;;;;;;3.70;65.52;95925.75;5110529;27;20038;-67
2022/02/09 20:36:11;;;;;;;12.02;7.78;;;;;;;3.66;65.59;95939.63;5116337;27;20028;-69
2022/02/09 20:38:37;;;;;;;12.30;7.65;;;;;;;3.64;65.75;95933.69;5115147;27;20102;-67
2022/02/09 20:41:07;;;;;;;9.90;7.20;;;;;;;3.64;65.92;95938.81;5109078;27;20069;-67
2022/02/09 20:43:39;;;;;;;9.52;6.72;;;;;;;3.50;66.60;95926.50;5107375;27;20027;-67
2022/02/09 20:46:06;;;;;;;13.68;9.30;;;;;;;3.48;66.31;95929.13;5129498;27;20035;-67
2022/02/09 20:48:32;;;;;;;11.30;7.07;;;;;;;3.56;66.19;95928.84;5092832;28;20408;-67
2022/02/09 20:50:58;;;;;;;10.98;7.15;;;;;;;3.57;65.82;95928.78;5083646;27;20041;-68
2022/02/09 20:53:24;;;;;;;10.13;6.53;;;;;;;3.54;65.68;95923.75;5129733;27;20115;-67
2022/02/09 20:55:49;;;;;;;8.30;6.68;;;;;;;3.54;65.65;95926.34;5112269;27;20517;-67
2022/02/09 20:58:15;;;;;;;10.85;7.72;;;;;;;3.46;65.82;95930.09;5108547;27;20027;-67
2022/02/09 21:00:53;;;;;;;13.25;8.02;;;;;;;3.38;66.14;95922.66;5109384;28;20118;-67
2022/02/09 21:03:39;;;;;;;10.82;7.50;;;;;;;3.45;65.75;95923.25;5108764;28;20108;-67
2022/02/09 21:16:15;;;;;;;13.65;8.43;;;;;;;3.32;65.95;95912.63;5107801;28;20024;-67
2022/02/09 21:32:05;;;;;;;10.15;7.03;;;;;;;3.30;66.42;95922.94;5108586;28;20563;-67
2022/02/09 21:45:36;;;;;;;12.73;8.43;;;;;;;3.30;66.72;95935.78;5110323;28;20032;-67
2022/02/09 22:23:51;;;;;;;14.00;9.10;;;;;;;2.42;67.91;95940.56;5094045;27;20032;-65
2022/02/09 22:26:33;;;;;;;11.02;7.53;;;;;;;2.32;68.00;95943.47;5114681;28;20119;-65
2022/02/09 22:29:39;;;;;;;11.73;7.20;;;;;;;2.22;68.00;95940.34;5113064;28;20032;-65
2022/02/09 22:50:44;;;;;;;12.80;7.85;;;;;;;2.05;67.13;95910.13;5112867;28;20024;-66
2022/02/09 22:55:49;;;;;;;9.88;6.88;;;;;;;1.98;67.76;95898.41;5112823;28;20421;-65
2022/02/09 22:58:15;;;;;;;9.15;6.82;;;;;;;1.97;68.23;95896.72;5113836;28;20036;-65
2022/02/09 23:03:19;;;;;;;10.70;7.22;;;;;;;1.73;67.53;95886.34;5112868;28;20497;-65
2022/02/09 23:13:43;;;;;;;9.13;5.53;;;;;;;1.27;67.71;95885.16;5112683;28;20093;-65
2022/02/09 23:26:57;;;;;;;11.48;6.60;;;;;;;0.85;69.62;95905.97;5113523;27;20433;-65
2022/02/09 23:56:41;;;;;;;15.30;9.52;;;;;;;0.26;73.63;95895.63;5113199;28;20504;-65
